aviador You're here:

KZPH Decoded Metar

in
Report Time2017-03-30 18:35:00
UTC Time2017-03-30 18:38:00
Flight Rules vfr VFR
Wind180° at 08 kt
W.Decomp.*RWY 18: 8.0 kt HW -0 kt LCW
RWY 19: 7.9 kt HW 1.4 kt LCW
RWY 22: 6.1 kt HW 5.1 kt LCW
RWY 23: 5.1 kt HW 6.1 kt LCW
W.Rank180° ranks 22
Current wind is above 180° avg. (6.2)
Visibility9999 m
Phenomena:N/A
Clouds:Scattered 060 Hf
Scattered 070 Hf
Scattered 090 Hf
Expected CloudBase > 6,000 ft AGL from Temp-Dew spread
CeilingNone
Temp29°C
Dew Point14°C (40% RH)
Heat Index28.6°C
AAT27.4°C
QNH1016 hPa
Raw Report
METAR KZPH 301835Z AUTO 18008KT 10SM SCT060 SCT070 SCT090 29/14 A2999
RMK AO2 T02920142=

Extra information for KZPH:More info

Social comments